Time;durP1;ratioP1;P1;durP2;ratioP2;P2;SDS_P1;SDS_P2;PMS_P1;PMS_P2;Temp;Humidity;BMP_temperature;BMP_pressure;BME280_temperature;BME280_humidity;BME280_pressure;Samples;Min_cycle;Max_cycle;Signal;HPM_P1;HPM_P2
2022/05/13 00:01:31;;;;;;;5.20;4.90;;;;;;;;;;6169166;23;20388;-89
2022/05/13 00:04:35;;;;;;;5.70;5.07;;;;;;;;;;6173596;23;20500;-89
2022/05/13 00:07:43;;;;;;;5.77;5.40;;;;;;;;;;6169962;23;20404;-89
2022/05/13 00:10:47;;;;;;;5.87;5.43;;;;;;;;;;6174142;23;20380;-89
2022/05/13 00:13:52;;;;;;;5.80;5.37;;;;;;;;;;6177705;22;20438;-89
2022/05/13 00:16:58;;;;;;;5.70;5.50;;;;;;;;;;6176332;22;20384;-89
2022/05/13 00:20:04;;;;;;;6.37;5.90;;;;;;;;;;6177364;22;20388;-88
2022/05/13 00:23:10;;;;;;;5.63;5.30;;;;;;;;;;6173296;22;20392;-90
2022/05/13 00:25:56;;;;;;;4.50;4.10;;;;;;;;;;6172384;22;20423;-89
2022/05/13 00:28:22;;;;;;;4.43;4.23;;;;;;;;;;6175589;22;20404;-90
2022/05/13 00:30:48;;;;;;;4.77;4.57;;;;;;;;;;6171489;23;20404;-89
2022/05/13 00:33:16;;;;;;;8.50;4.60;;;;;;;;;;6167538;23;20408;-89
2022/05/13 00:35:42;;;;;;;5.17;4.80;;;;;;;;;;6169025;22;20416;-89
2022/05/13 00:38:08;;;;;;;6.07;5.77;;;;;;;;;;6160870;23;20416;-89
2022/05/13 00:40:35;;;;;;;6.03;5.63;;;;;;;;;;6164403;23;20398;-90
2022/05/13 00:43:03;;;;;;;4.77;4.57;;;;;;;;;;6162343;23;20393;-89
2022/05/13 00:45:31;;;;;;;6.27;5.67;;;;;;;;;;6164232;23;20412;-90
2022/05/13 00:48:01;;;;;;;5.20;4.80;;;;;;;;;;6161744;23;20392;-90
2022/05/13 00:50:30;;;;;;;5.77;5.17;;;;;;;;;;6163784;23;20388;-90
2022/05/13 00:52:56;;;;;;;5.43;5.13;;;;;;;;;;6161044;23;20422;-90
2022/05/13 00:55:28;;;;;;;4.43;3.80;;;;;;;;;;6159673;23;21056;-89
2022/05/13 00:57:54;;;;;;;4.23;3.90;;;;;;;;;;6157961;23;20774;-89
2022/05/13 01:00:27;;;;;;;5.20;4.70;;;;;;;;;;6165054;23;20410;-89
2022/05/13 01:02:54;;;;;;;5.33;5.03;;;;;;;;;;6160772;23;20381;-89
2022/05/13 01:05:21;;;;;;;6.63;6.00;;;;;;;;;;6158929;23;20440;-89
2022/05/13 01:07:47;;;;;;;5.00;4.70;;;;;;;;;;6161924;23;20416;-89
2022/05/13 01:10:24;;;;;;;6.10;5.63;;;;;;;;;;6139437;23;20861;-89
2022/05/13 01:12:54;;;;;;;5.07;4.77;;;;;;;;;;6163260;23;20451;-89
2022/05/13 01:15:23;;;;;;;5.60;4.93;;;;;;;;;;6165706;23;20706;-89
2022/05/13 01:18:06;;;;;;;5.90;5.50;;;;;;;;;;6159437;23;20388;-89
2022/05/13 01:20:34;;;;;;;6.97;6.00;;;;;;;;;;6158886;23;20397;-89
2022/05/13 01:23:32;;;;;;;5.97;5.30;;;;;;;;;;6158679;23;20900;-89
2022/05/13 01:26:29;;;;;;;7.57;5.63;;;;;;;;;;6174547;22;20732;-91
2022/05/13 01:40:08;;;;;;;4.80;4.40;;;;;;;;;;6139588;22;20440;-91
2022/05/13 01:43:17;;;;;;;4.77;4.70;;;;;;;;;;6118243;22;20477;-92
2022/05/13 01:46:28;;;;;;;5.40;4.80;;;;;;;;;;6119840;23;20406;-92
2022/05/13 02:20:40;;;;;;;9.30;5.43;;;;;;;;;;6185826;23;20450;-92
2022/05/13 03:20:59;;;;;;;5.43;5.10;;;;;;;;;;6233283;22;20431;-93
2022/05/13 03:24:10;;;;;;;4.80;4.40;;;;;;;;;;6298718;22;20408;-90
2022/05/13 03:29:44;;;;;;;4.00;3.90;;;;;;;;;;6299958;22;20440;-92
2022/05/13 03:32:53;;;;;;;4.53;3.97;;;;;;;;;;6293785;22;20388;-92
2022/05/13 03:35:56;;;;;;;3.70;3.60;;;;;;;;;;6302029;22;20380;-93
2022/05/13 03:39:04;;;;;;;4.90;3.50;;;;;;;;;;6301999;22;20415;-90
2022/05/13 03:42:09;;;;;;;4.90;2.90;;;;;;;;;;6298347;22;20455;-92
2022/05/13 03:45:15;;;;;;;3.80;3.47;;;;;;;;;;6298597;22;20420;-93
2022/05/13 03:51:02;;;;;;;6.13;3.00;;;;;;;;;;6293858;22;20513;-91
2022/05/13 03:54:06;;;;;;;3.60;3.33;;;;;;;;;;6330490;22;20438;-91
2022/05/13 03:57:12;;;;;;;3.23;3.03;;;;;;;;;;6332676;22;20384;-91
2022/05/13 04:00:17;;;;;;;8.57;3.50;;;;;;;;;;6331332;22;20422;-92
2022/05/13 04:03:23;;;;;;;5.50;2.70;;;;;;;;;;6330308;22;20376;-92
2022/05/13 04:09:37;;;;;;;3.27;2.83;;;;;;;;;;6300535;22;20388;-90
2022/05/13 04:16:06;;;;;;;3.03;2.83;;;;;;;;;;6299719;22;20388;-91
2022/05/13 04:19:12;;;;;;;2.70;2.60;;;;;;;;;;6300338;22;20454;-92
2022/05/13 04:22:19;;;;;;;6.17;3.77;;;;;;;;;;6302251;22;20413;-91
2022/05/13 04:25:26;;;;;;;4.90;3.47;;;;;;;;;;6298922;22;20496;-88
2022/05/13 04:28:39;;;;;;;5.93;2.20;;;;;;;;;;6300533;22;20435;-93
2022/05/13 04:31:45;;;;;;;2.43;2.30;;;;;;;;;;6301204;22;20423;-93
2022/05/13 04:37:44;;;;;;;3.17;2.90;;;;;;;;;;6148233;22;20491;-92
2022/05/13 04:56:00;;;;;;;3.83;2.40;;;;;;;;;;6173849;23;20383;-93
2022/05/13 04:58:55;;;;;;;6.73;2.50;;;;;;;;;;6172876;23;20400;-93
2022/05/13 05:01:55;;;;;;;3.50;2.37;;;;;;;;;;6173453;22;20400;-93
2022/05/13 05:05:02;;;;;;;4.63;2.70;;;;;;;;;;6170491;23;20467;-93
2022/05/13 05:08:08;;;;;;;5.57;2.10;;;;;;;;;;6172654;23;20400;-92
2022/05/13 05:11:20;;;;;;;5.70;2.60;;;;;;;;;;6172033;23;20368;-92
2022/05/13 05:14:27;;;;;;;2.50;2.10;;;;;;;;;;6168056;22;20924;-90
2022/05/13 05:17:32;;;;;;;2.67;2.40;;;;;;;;;;6173108;23;20384;-90
2022/05/13 05:20:39;;;;;;;5.77;2.53;;;;;;;;;;6174387;22;20467;-90
2022/05/13 05:23:58;;;;;;;9.27;2.77;;;;;;;;;;6170937;23;20439;-93
2022/05/13 05:27:15;;;;;;;2.47;2.37;;;;;;;;;;6172545;22;20419;-93
2022/05/13 05:30:14;;;;;;;3.17;2.47;;;;;;;;;;6170843;22;20464;-94
2022/05/13 05:33:20;;;;;;;3.80;2.83;;;;;;;;;;6169512;23;20376;-94
2022/05/13 05:36:29;;;;;;;4.80;2.83;;;;;;;;;;6168801;22;20393;-90
2022/05/13 05:39:36;;;;;;;2.90;2.50;;;;;;;;;;6174011;23;20406;-92
2022/05/13 05:42:48;;;;;;;3.90;2.50;;;;;;;;;;6167864;22;20448;-93
2022/05/13 05:45:52;;;;;;;11.77;5.80;;;;;;;;;;6181784;23;20422;-92
2022/05/13 05:48:58;;;;;;;3.53;3.23;;;;;;;;;;6173444;22;20399;-90
2022/05/13 05:52:04;;;;;;;8.80;3.23;;;;;;;;;;6168026;22;20431;-88
2022/05/13 05:58:33;;;;;;;3.10;2.80;;;;;;;;;;6172377;22;20395;-93
2022/05/13 06:01:45;;;;;;;5.40;2.70;;;;;;;;;;6169477;22;20452;-88
2022/05/13 06:08:02;;;;;;;3.30;2.30;;;;;;;;;;6166647;22;20467;-93
2022/05/13 06:11:23;;;;;;;3.00;2.90;;;;;;;;;;6263530;22;20382;-91
2022/05/13 06:14:10;;;;;;;3.37;2.60;;;;;;;;;;6263684;22;20400;-93
2022/05/13 06:16:48;;;;;;;8.10;2.87;;;;;;;;;;6262294;22;20532;-93
2022/05/13 06:19:50;;;;;;;4.90;3.13;;;;;;;;;;6263434;22;20829;-94
2022/05/13 06:23:03;;;;;;;4.20;3.80;;;;;;;;;;6264687;22;20456;-91
2022/05/13 06:26:23;;;;;;;3.90;3.60;;;;;;;;;;6285499;22;20412;-94
2022/05/13 06:29:39;;;;;;;2.93;2.80;;;;;;;;;;6297897;22;20398;-89
2022/05/13 06:35:16;;;;;;;3.13;2.80;;;;;;;;;;6172270;23;20428;-92
2022/05/13 06:38:13;;;;;;;4.93;2.73;;;;;;;;;;6172881;23;20706;-92
2022/05/13 06:40:59;;;;;;;5.37;3.10;;;;;;;;;;6147821;23;20388;-92
2022/05/13 06:44:05;;;;;;;5.20;3.83;;;;;;;;;;6171922;23;20484;-92
2022/05/13 06:47:32;;;;;;;6.40;2.83;;;;;;;;;;6172663;23;20497;-93
2022/05/13 06:50:32;;;;;;;4.03;2.80;;;;;;;;;;6180912;22;20530;-92
2022/05/13 06:53:45;;;;;;;2.77;2.20;;;;;;;;;;6205238;22;20379;-92
2022/05/13 06:59:57;;;;;;;5.83;3.07;;;;;;;;;;6203901;22;20398;-88
2022/05/13 07:03:13;;;;;;;;;;;;;;;;;;;;;
2022/05/13 07:06:25;;;;;;;;;;;;;;;;;;;;;
2022/05/13 07:11:59;;;;;;;4.70;2.97;;;;;;;;;;6257165;22;20449;-91
2022/05/13 07:26:33;;;;;;;4.97;2.83;;;;;;;;;;6293537;22;20482;-93
2022/05/13 07:29:45;;;;;;;3.83;3.37;;;;;;;;;;6319150;22;20376;-94
2022/05/13 07:32:48;;;;;;;2.83;2.60;;;;;;;;;;6319081;22;20453;-93
2022/05/13 07:38:36;;;;;;;3.37;2.60;;;;;;;;;;6303519;22;21020;-91
2022/05/13 07:41:46;;;;;;;3.73;3.43;;;;;;;;;;6320391;22;20414;-94
2022/05/13 07:44:47;;;;;;;3.80;3.40;;;;;;;;;;6322964;22;20423;-92
2022/05/13 07:47:56;;;;;;;4.53;2.60;;;;;;;;;;6318466;22;20773;-90
2022/05/13 07:50:59;;;;;;;6.53;3.33;;;;;;;;;;6319533;22;20871;-91
2022/05/13 07:54:06;;;;;;;2.60;2.43;;;;;;;;;;6316231;22;20831;-89
2022/05/13 07:57:12;;;;;;;2.67;2.40;;;;;;;;;;6310833;22;20856;-91
2022/05/13 08:00:25;;;;;;;3.20;2.90;;;;;;;;;;6315760;22;20414;-92
2022/05/13 08:03:35;;;;;;;3.80;2.93;;;;;;;;;;6310422;22;20395;-92
2022/05/13 08:06:45;;;;;;;3.47;3.03;;;;;;;;;;6309514;22;20388;-92
2022/05/13 08:09:48;;;;;;;5.27;2.50;;;;;;;;;;6312637;22;20683;-92
2022/05/13 08:12:54;;;;;;;2.80;2.60;;;;;;;;;;6314305;22;20380;-92
2022/05/13 08:16:00;;;;;;;13.33;4.33;;;;;;;;;;6316807;22;20724;-90
2022/05/13 08:19:05;;;;;;;4.73;3.37;;;;;;;;;;6315479;22;20455;-92
2022/05/13 08:22:19;;;;;;;6.87;3.40;;;;;;;;;;6310111;22;20376;-89
2022/05/13 08:25:17;;;;;;;6.87;2.80;;;;;;;;;;6309640;22;20434;-91
2022/05/13 08:28:23;;;;;;;4.57;2.70;;;;;;;;;;6308675;22;20409;-90
2022/05/13 08:31:29;;;;;;;4.00;2.77;;;;;;;;;;6315170;22;20411;-92
2022/05/13 08:34:50;;;;;;;2.90;2.60;;;;;;;;;;6328076;22;20393;-90
2022/05/13 08:38:06;;;;;;;3.73;2.70;;;;;;;;;;6325017;22;20427;-91
2022/05/13 08:41:07;;;;;;;5.53;3.10;;;;;;;;;;6318630;22;20384;-94
2022/05/13 08:44:22;;;;;;;10.00;5.03;;;;;;;;;;6321148;22;20432;-94
2022/05/13 08:49:35;;;;;;;2.60;2.40;;;;;;;;;;6134948;22;20485;-87
2022/05/13 08:57:41;;;;;;;4.30;2.50;;;;;;;;;;6084939;23;20457;-93
2022/05/13 09:00:10;;;;;;;5.50;2.77;;;;;;;;;;6054210;23;20415;-93
2022/05/13 09:02:38;;;;;;;3.33;2.90;;;;;;;;;;6084429;23;20447;-94
2022/05/13 09:05:13;;;;;;;4.07;2.53;;;;;;;;;;6079126;23;20657;-93
2022/05/13 09:07:40;;;;;;;1.83;1.80;;;;;;;;;;6052276;23;20387;-93
2022/05/13 09:10:10;;;;;;;2.73;2.20;;;;;;;;;;6079075;23;20398;-94
2022/05/13 09:12:55;;;;;;;11.87;2.23;;;;;;;;;;6079782;23;20438;-88
2022/05/13 09:15:30;;;;;;;2.43;2.23;;;;;;;;;;6078649;23;20387;-92
2022/05/13 09:17:59;;;;;;;2.97;2.87;;;;;;;;;;6080243;23;20382;-94
2022/05/13 09:20:39;;;;;;;1.97;1.87;;;;;;;;;;6081742;23;20382;-92
2022/05/13 09:23:10;;;;;;;2.20;2.10;;;;;;;;;;6079115;23;20355;-93
2022/05/13 09:25:36;;;;;;;3.33;2.50;;;;;;;;;;6128118;22;20457;-92
2022/05/13 09:28:10;;;;;;;1.90;1.83;;;;;;;;;;6138222;23;20381;-91
2022/05/13 09:30:39;;;;;;;3.40;2.00;;;;;;;;;;6239621;23;20989;-91
2022/05/13 09:33:24;;;;;;;1.93;1.83;;;;;;;;;;6140729;23;20473;-93
2022/05/13 09:36:29;;;;;;;2.03;1.87;;;;;;;;;;6240425;23;20393;-94
2022/05/13 09:38:56;;;;;;;2.30;1.70;;;;;;;;;;6133022;23;20362;-93
2022/05/13 09:41:25;;;;;;;6.70;2.00;;;;;;;;;;6228290;23;20525;-92
2022/05/13 09:43:52;;;;;;;4.40;2.80;;;;;;;;;;6231133;23;21071;-93
2022/05/13 09:46:23;;;;;;;1.87;1.70;;;;;;;;;;6229358;23;20400;-92
2022/05/13 09:48:58;;;;;;;2.07;1.90;;;;;;;;;;6233358;23;20401;-90
2022/05/13 09:51:31;;;;;;;1.97;1.83;;;;;;;;;;6229816;23;20829;-91
2022/05/13 09:54:23;;;;;;;2.97;1.80;;;;;;;;;;6233621;23;20424;-91
2022/05/13 09:56:53;;;;;;;6.90;2.73;;;;;;;;;;6096266;23;20389;-92
2022/05/13 09:59:20;;;;;;;2.67;2.50;;;;;;;;;;6228441;23;20389;-91
2022/05/13 10:01:46;;;;;;;9.03;1.90;;;;;;;;;;6225814;23;20841;-92
2022/05/13 10:04:15;;;;;;;3.60;1.63;;;;;;;;;;6124427;23;21122;-86
2022/05/13 10:06:42;;;;;;;2.70;2.10;;;;;;;;;;6227191;23;20880;-89
2022/05/13 10:15:06;;;;;;;2.60;1.80;;;;;;;;;;6090626;23;20735;-90
2022/05/13 10:17:32;;;;;;;2.80;2.70;;;;;;;;;;6197549;23;20882;-89
2022/05/13 10:20:10;;;;;;;3.87;2.97;;;;;;;;;;6201417;23;20398;-90
2022/05/13 10:22:45;;;;;;;3.00;2.70;;;;;;;;;;6200845;23;20467;-90
2022/05/13 10:25:23;;;;;;;4.17;3.70;;;;;;;;;;6211025;22;20509;-92
2022/05/13 10:27:51;;;;;;;2.57;1.50;;;;;;;;;;6204913;23;20401;-90
2022/05/13 10:30:32;;;;;;;3.47;1.83;;;;;;;;;;6202660;23;20390;-91
2022/05/13 10:33:16;;;;;;;2.53;2.37;;;;;;;;;;6098249;23;20381;-90
2022/05/13 10:35:51;;;;;;;4.63;2.10;;;;;;;;;;6100931;23;20390;-92
2022/05/13 10:38:43;;;;;;;3.90;2.50;;;;;;;;;;6099311;23;20497;-91
2022/05/13 10:41:30;;;;;;;2.53;1.73;;;;;;;;;;6203894;23;20382;-92
2022/05/13 10:44:09;;;;;;;3.03;1.93;;;;;;;;;;6201224;23;20429;-92
2022/05/13 10:46:40;;;;;;;8.03;2.50;;;;;;;;;;6204722;23;20383;-91
2022/05/13 10:49:06;;;;;;;3.57;2.00;;;;;;;;;;6203969;23;20522;-90
2022/05/13 10:51:41;;;;;;;5.60;4.90;;;;;;;;;;6202365;23;20455;-90
2022/05/13 10:54:26;;;;;;;1.87;1.77;;;;;;;;;;6199230;23;20378;-88
2022/05/13 11:00:11;;;;;;;2.30;2.20;;;;;;;;;;6109511;23;20413;-91
2022/05/13 11:03:16;;;;;;;;;;;;;;;;;;;;;
2022/05/13 11:06:04;;;;;;;2.70;2.20;;;;;;;;;;6113981;23;20453;-91
2022/05/13 11:09:05;;;;;;;2.60;2.40;;;;;;;;;;6218653;23;20460;-91
2022/05/13 11:12:14;;;;;;;2.50;2.40;;;;;;;;;;6109220;23;20386;-91
2022/05/13 11:15:23;;;;;;;2.87;2.20;;;;;;;;;;6125710;23;20429;-91
2022/05/13 11:18:41;;;;;;;2.90;2.77;;;;;;;;;;6104849;23;20416;-92
2022/05/13 11:21:27;;;;;;;2.50;2.40;;;;;;;;;;6104267;23;20405;-92
2022/05/13 11:27:18;;;;;;;2.27;2.17;;;;;;;;;;6102567;22;20460;-92
2022/05/13 11:30:07;;;;;;;3.33;2.80;;;;;;;;;;6106803;23;20391;-92
2022/05/13 11:33:03;;;;;;;2.70;2.50;;;;;;;;;;6106872;23;20408;-93
2022/05/13 11:36:02;;;;;;;3.23;2.90;;;;;;;;;;6112932;23;20402;-90
2022/05/13 11:38:55;;;;;;;2.37;2.27;;;;;;;;;;6105723;23;20417;-92
2022/05/13 11:41:58;;;;;;;3.40;3.20;;;;;;;;;;6103830;23;20387;-91
2022/05/13 11:45:02;;;;;;;3.87;3.50;;;;;;;;;;6103005;23;20471;-90
2022/05/13 11:48:20;;;;;;;5.93;2.40;;;;;;;;;;6111156;23;20389;-90
2022/05/13 11:51:28;;;;;;;3.00;2.77;;;;;;;;;;6109376;23;20385;-93
2022/05/13 11:54:39;;;;;;;3.37;3.27;;;;;;;;;;6108015;23;20405;-92
2022/05/13 11:57:44;;;;;;;10.23;5.80;;;;;;;;;;6105929;23;20402;-90
2022/05/13 12:00:36;;;;;;;4.67;3.67;;;;;;;;;;6107492;23;20394;-94
2022/05/13 12:03:39;;;;;;;4.40;3.13;;;;;;;;;;6114359;23;20402;-93
2022/05/13 12:06:45;;;;;;;3.43;3.13;;;;;;;;;;6107897;23;20394;-92
2022/05/13 12:09:31;;;;;;;4.67;3.20;;;;;;;;;;6106636;23;20378;-92
2022/05/13 12:16:03;;;;;;;3.30;3.20;;;;;;;;;;6142130;23;20414;-91
2022/05/13 12:19:01;;;;;;;4.20;3.97;;;;;;;;;;6102386;23;20394;-91
2022/05/13 12:21:50;;;;;;;4.13;3.87;;;;;;;;;;6105561;23;20397;-89
2022/05/13 12:25:15;;;;;;;5.00;4.53;;;;;;;;;;6100376;23;20445;-92
2022/05/13 12:28:24;;;;;;;4.77;4.47;;;;;;;;;;6102156;23;20409;-92
2022/05/13 12:31:37;;;;;;;7.20;3.73;;;;;;;;;;6099554;23;20481;-91
2022/05/13 12:37:58;;;;;;;4.40;4.23;;;;;;;;;;6100580;23;20365;-92
2022/05/13 12:41:19;;;;;;;4.63;4.40;;;;;;;;;;6101598;23;20702;-92
2022/05/13 12:44:14;;;;;;;4.93;4.47;;;;;;;;;;6102516;23;20448;-91
2022/05/13 12:47:23;;;;;;;3.43;3.23;;;;;;;;;;6105829;23;20932;-93
2022/05/13 12:50:30;;;;;;;2.90;2.80;;;;;;;;;;6106992;23;20390;-92
2022/05/13 12:53:34;;;;;;;4.20;3.70;;;;;;;;;;6104837;23;20436;-90
2022/05/13 12:56:40;;;;;;;4.43;4.07;;;;;;;;;;6108906;23;20466;-90
2022/05/13 12:59:48;;;;;;;5.27;3.10;;;;;;;;;;6104044;23;20401;-91
2022/05/13 13:02:52;;;;;;;3.13;2.93;;;;;;;;;;6102773;23;20386;-90
2022/05/13 13:06:02;;;;;;;3.07;3.03;;;;;;;;;;6108356;23;20398;-89
2022/05/13 13:09:07;;;;;;;3.70;3.40;;;;;;;;;;6105865;23;20417;-91
2022/05/13 13:12:13;;;;;;;3.93;3.73;;;;;;;;;;6105096;23;20409;-91
2022/05/13 13:15:22;;;;;;;5.93;3.70;;;;;;;;;;6098294;23;20457;-92
2022/05/13 13:18:28;;;;;;;5.00;4.70;;;;;;;;;;6103699;23;20394;-92
2022/05/13 13:21:33;;;;;;;3.60;3.30;;;;;;;;;;6105505;23;20386;-91
2022/05/13 13:24:26;;;;;;;3.20;3.03;;;;;;;;;;6100954;23;20434;-91
2022/05/13 13:26:52;;;;;;;5.00;3.23;;;;;;;;;;6199470;22;20525;-91
2022/05/13 13:29:27;;;;;;;2.87;2.67;;;;;;;;;;6197010;23;20441;-88
2022/05/13 13:31:55;;;;;;;4.60;2.50;;;;;;;;;;6100698;23;20389;-92
2022/05/13 13:34:24;;;;;;;2.80;2.73;;;;;;;;;;6095909;23;20477;-92
2022/05/13 13:36:50;;;;;;;4.70;4.40;;;;;;;;;;6098299;23;20378;-90
2022/05/13 13:39:16;;;;;;;3.87;3.60;;;;;;;;;;6196475;23;20421;-91
2022/05/13 13:41:44;;;;;;;3.37;3.13;;;;;;;;;;6196755;23;20405;-90
2022/05/13 13:44:15;;;;;;;3.70;3.03;;;;;;;;;;6096364;23;20434;-87
2022/05/13 13:46:46;;;;;;;3.60;2.30;;;;;;;;;;6092396;23;20380;-91
2022/05/13 13:49:32;;;;;;;10.90;3.00;;;;;;;;;;6099223;23;20454;-90
2022/05/13 13:52:21;;;;;;;2.43;2.23;;;;;;;;;;6197528;23;20718;-89
2022/05/13 13:55:27;;;;;;;2.10;2.10;;;;;;;;;;6101082;23;20382;-90
2022/05/13 13:58:20;;;;;;;2.50;2.30;;;;;;;;;;6100201;23;20421;-92
2022/05/13 14:01:34;;;;;;;3.07;2.00;;;;;;;;;;6099128;23;20412;-91
2022/05/13 14:04:45;;;;;;;2.10;2.10;;;;;;;;;;6104733;23;20464;-89
2022/05/13 14:07:53;;;;;;;3.33;3.13;;;;;;;;;;6099133;23;20916;-90
2022/05/13 14:11:03;;;;;;;2.33;2.10;;;;;;;;;;6102443;23;20485;-90
2022/05/13 14:14:14;;;;;;;2.93;2.30;;;;;;;;;;6106743;23;20419;-90
2022/05/13 14:17:29;;;;;;;5.13;2.70;;;;;;;;;;6103539;23;20385;-95
2022/05/13 14:20:30;;;;;;;3.70;2.03;;;;;;;;;;6099449;23;20443;-91
2022/05/13 14:23:38;;;;;;;1.87;1.77;;;;;;;;;;6101822;23;20733;-90
2022/05/13 14:26:45;;;;;;;4.27;1.90;;;;;;;;;;6107099;23;20481;-90
2022/05/13 14:29:33;;;;;;;2.40;2.30;;;;;;;;;;6182520;22;20513;-92
2022/05/13 14:32:19;;;;;;;2.60;2.20;;;;;;;;;;6192176;23;20439;-92
2022/05/13 14:35:35;;;;;;;7.70;2.17;;;;;;;;;;6187074;22;20383;-89
2022/05/13 14:39:48;;;;;;;2.63;2.43;;;;;;;;;;6189505;22;20383;-89
2022/05/13 14:41:39;;;;;;;2.40;2.30;;;;;;;;;;6189378;22;20371;-86
2022/05/13 14:44:50;;;;;;;2.37;2.20;;;;;;;;;;6190261;22;20509;-89
2022/05/13 14:47:55;;;;;;;1.87;1.67;;;;;;;;;;6183957;22;20395;-90
2022/05/13 14:51:01;;;;;;;1.67;1.67;;;;;;;;;;6186583;22;20407;-89
2022/05/13 14:54:10;;;;;;;2.83;1.50;;;;;;;;;;6187763;22;20456;-86
2022/05/13 14:57:22;;;;;;;2.03;1.80;;;;;;;;;;6184436;23;20451;-90
2022/05/13 15:00:31;;;;;;;4.90;2.27;;;;;;;;;;6188153;22;20410;-92
2022/05/13 15:03:34;;;;;;;2.50;2.30;;;;;;;;;;6186217;22;20391;-91
2022/05/13 15:06:20;;;;;;;3.90;1.80;;;;;;;;;;6189573;22;20404;-91
2022/05/13 15:09:45;;;;;;;2.70;2.37;;;;;;;;;;6190041;22;20407;-90
2022/05/13 15:12:50;;;;;;;2.00;1.90;;;;;;;;;;6191273;22;20387;-90
2022/05/13 15:15:57;;;;;;;3.70;2.43;;;;;;;;;;6189122;22;20411;-91
2022/05/13 15:19:02;;;;;;;2.33;2.10;;;;;;;;;;6189845;22;20391;-91
2022/05/13 15:22:08;;;;;;;4.00;1.80;;;;;;;;;;6190020;22;20387;-92
2022/05/13 15:25:16;;;;;;;2.40;2.30;;;;;;;;;;6188336;23;20465;-90
2022/05/13 15:28:21;;;;;;;5.17;4.40;;;;;;;;;;6188234;22;20902;-90
2022/05/13 15:31:25;;;;;;;2.80;1.80;;;;;;;;;;6186719;22;20739;-89
2022/05/13 15:34:31;;;;;;;3.20;2.90;;;;;;;;;;6187132;22;20384;-88
2022/05/13 15:37:40;;;;;;;5.03;2.23;;;;;;;;;;6186002;22;20878;-90
2022/05/13 15:40:46;;;;;;;4.93;2.17;;;;;;;;;;6186007;22;20396;-91
2022/05/13 15:43:52;;;;;;;2.27;2.10;;;;;;;;;;6188446;22;20448;-92
2022/05/13 15:46:58;;;;;;;2.20;2.10;;;;;;;;;;6195097;22;20451;-89
2022/05/13 15:53:16;;;;;;;2.80;2.53;;;;;;;;;;6193338;23;20473;-90
2022/05/13 15:56:21;;;;;;;3.33;2.10;;;;;;;;;;6188887;22;20858;-89
2022/05/13 15:59:26;;;;;;;2.60;2.40;;;;;;;;;;6192538;22;20728;-89
2022/05/13 16:02:32;;;;;;;4.33;2.50;;;;;;;;;;6197785;22;20389;-90
2022/05/13 16:05:39;;;;;;;4.47;2.73;;;;;;;;;;6189968;22;20430;-91
2022/05/13 16:08:53;;;;;;;6.23;2.30;;;;;;;;;;6198573;22;20394;-91
2022/05/13 16:12:02;;;;;;;6.80;3.60;;;;;;;;;;6194024;23;20395;-91
2022/05/13 16:15:05;;;;;;;5.67;2.40;;;;;;;;;;6192578;22;20438;-90
2022/05/13 16:18:11;;;;;;;4.70;2.50;;;;;;;;;;6196831;22;20367;-91
2022/05/13 16:21:24;;;;;;;6.03;2.30;;;;;;;;;;6203199;22;20406;-92
2022/05/13 16:27:20;;;;;;;2.70;2.50;;;;;;;;;;6191670;22;20470;-90
2022/05/13 16:30:26;;;;;;;2.83;2.43;;;;;;;;;;6198561;22;20403;-94
2022/05/13 16:33:32;;;;;;;4.33;4.03;;;;;;;;;;6202391;22;20387;-92
2022/05/13 16:39:43;;;;;;;3.03;2.13;;;;;;;;;;6198773;23;20391;-91
2022/05/13 16:42:48;;;;;;;2.90;2.70;;;;;;;;;;6202512;22;20399;-92
2022/05/13 16:45:54;;;;;;;5.93;2.70;;;;;;;;;;6203237;23;20433;-91
2022/05/13 16:49:03;;;;;;;9.83;2.47;;;;;;;;;;6180044;22;20518;-90
2022/05/13 16:57:36;;;;;;;2.20;2.10;;;;;;;;;;6116626;22;20462;-91
2022/05/13 17:00:49;;;;;;;3.07;2.67;;;;;;;;;;6202818;23;20399;-92
2022/05/13 17:03:56;;;;;;;2.50;2.40;;;;;;;;;;6202807;22;20396;-92
2022/05/13 17:26:47;;;;;;;8.50;4.20;;;;;;;;;;6076816;22;20576;-90
2022/05/13 17:29:16;;;;;;;3.97;2.40;;;;;;;;;;6270155;22;20423;-90
2022/05/13 17:31:45;;;;;;;4.03;2.87;;;;;;;;;;6302570;22;20396;-91
2022/05/13 17:34:11;;;;;;;3.23;2.77;;;;;;;;;;6299851;22;20422;-89
2022/05/13 17:36:37;;;;;;;3.70;2.27;;;;;;;;;;6329497;22;20384;-93
2022/05/13 17:39:04;;;;;;;5.33;2.67;;;;;;;;;;6293195;22;20440;-90
2022/05/13 17:41:37;;;;;;;2.40;2.30;;;;;;;;;;6322350;22;20364;-94
2022/05/13 17:44:07;;;;;;;2.77;2.57;;;;;;;;;;6294144;22;20494;-91
2022/05/13 17:46:41;;;;;;;9.63;3.00;;;;;;;;;;6271919;22;20429;-93
2022/05/13 17:49:10;;;;;;;6.17;2.80;;;;;;;;;;6294045;22;20433;-91
2022/05/13 17:51:37;;;;;;;4.03;2.93;;;;;;;;;;6276236;22;20406;-94
2022/05/13 17:54:04;;;;;;;5.67;3.50;;;;;;;;;;6302363;22;20368;-94
2022/05/13 17:56:37;;;;;;;18.17;3.87;;;;;;;;;;6294778;22;20419;-94
2022/05/13 17:59:24;;;;;;;5.13;2.77;;;;;;;;;;6287394;22;20905;-92
2022/05/13 18:02:30;;;;;;;5.13;3.47;;;;;;;;;;6322299;22;20379;-91
2022/05/13 18:05:36;;;;;;;3.80;2.47;;;;;;;;;;6325266;22;20458;-91
2022/05/13 18:08:46;;;;;;;4.05;3.30;;;;;;;;;;6324736;22;20376;-91
2022/05/13 18:11:53;;;;;;;3.03;2.90;;;;;;;;;;6295311;22;20179;-92
2022/05/13 18:30:55;;;;;;;4.93;3.23;;;;;;;;;;6198484;23;20455;-92
2022/05/13 18:34:07;;;;;;;3.57;3.27;;;;;;;;;;6197523;23;20391;-91
2022/05/13 18:46:09;;;;;;;3.80;2.60;;;;;;;;;;6141699;23;20471;-92
2022/05/13 18:49:26;;;;;;;;;;;;;;;;;;;;;
2022/05/13 18:52:25;;;;;;;2.77;2.53;;;;;;;;;;6141283;22;20443;-92
2022/05/13 18:55:31;;;;;;;2.77;2.43;;;;;;;;;;6170211;22;20447;-91
2022/05/13 18:58:38;;;;;;;3.97;3.73;;;;;;;;;;6199210;22;20387;-91
2022/05/13 19:01:44;;;;;;;3.47;2.43;;;;;;;;;;6198243;23;20378;-91
2022/05/13 19:04:54;;;;;;;4.80;2.93;;;;;;;;;;6198461;23;20426;-93
2022/05/13 19:08:00;;;;;;;2.33;2.13;;;;;;;;;;6195271;22;20472;-93
2022/05/13 19:11:06;;;;;;;4.23;2.50;;;;;;;;;;6192436;22;20458;-93
2022/05/13 19:14:12;;;;;;;3.03;2.73;;;;;;;;;;6190924;23;20455;-90
2022/05/13 19:17:18;;;;;;;5.30;2.43;;;;;;;;;;6193956;22;20371;-90
2022/05/13 19:20:23;;;;;;;3.50;2.40;;;;;;;;;;6197061;22;20413;-92
2022/05/13 19:23:29;;;;;;;2.97;2.77;;;;;;;;;;6198176;22;20454;-92
2022/05/13 19:26:35;;;;;;;2.73;2.50;;;;;;;;;;6197203;23;20391;-92
2022/05/13 19:29:41;;;;;;;7.10;3.20;;;;;;;;;;6197553;23;20374;-93
2022/05/13 19:32:50;;;;;;;3.20;2.90;;;;;;;;;;6200554;22;20394;-94
2022/05/13 23:58:31;;;;;;;5.53;5.13;;;;;;;;;;6335337;22;20406;-92
